Time;durP1;ratioP1;P1;durP2;ratioP2;P2;SDS_P1;SDS_P2;PMS_P1;PMS_P2;Temp;Humidity;BMP_temperature;BMP_pressure;BME280_temperature;BME280_humidity;BME280_pressure;Samples;Min_cycle;Max_cycle;Signal;HPM_P1;HPM_P2
2022/11/16 00:01:18;;;;;;;9.88;8.68;;;;;;;;;;4987047;28;20026;-72
2022/11/16 00:03:47;;;;;;;12.05;9.18;;;;;;;;;;4992966;28;20034;-72
2022/11/16 00:06:13;;;;;;;11.10;9.90;;;;;;;;;;4970144;28;20041;-73
2022/11/16 00:08:41;;;;;;;10.23;9.10;;;;;;;;;;4973766;28;20034;-72
2022/11/16 00:11:09;;;;;;;11.13;9.27;;;;;;;;;;4989072;28;20503;-72
2022/11/16 00:13:37;;;;;;;10.55;9.45;;;;;;;;;;4972622;28;20034;-73
2022/11/16 00:16:03;;;;;;;12.60;9.02;;;;;;;;;;4989079;28;20035;-72
2022/11/16 00:18:29;;;;;;;9.95;8.75;;;;;;;;;;4954997;28;20400;-73
2022/11/16 00:20:55;;;;;;;9.65;8.23;;;;;;;;;;4979707;28;20035;-73
2022/11/16 00:23:23;;;;;;;9.65;7.82;;;;;;;;;;4984452;28;20436;-72
2022/11/16 00:25:52;;;;;;;13.63;8.60;;;;;;;;;;4972118;28;20019;-72
2022/11/16 00:28:20;;;;;;;9.23;8.25;;;;;;;;;;4988150;28;20054;-72
2022/11/16 00:30:46;;;;;;;17.50;7.60;;;;;;;;;;4955245;28;20476;-73
2022/11/16 00:33:13;;;;;;;13.23;8.52;;;;;;;;;;4988506;28;20030;-73
2022/11/16 00:35:42;;;;;;;10.80;9.70;;;;;;;;;;4972441;28;20037;-73
2022/11/16 00:38:07;;;;;;;21.25;9.13;;;;;;;;;;4971116;28;20034;-73
2022/11/16 00:40:34;;;;;;;10.30;9.15;;;;;;;;;;4972226;28;20034;-73
2022/11/16 00:43:00;;;;;;;14.77;8.23;;;;;;;;;;4986683;28;20030;-73
2022/11/16 00:45:26;;;;;;;13.00;8.30;;;;;;;;;;4970362;28;20061;-73
2022/11/16 00:47:52;;;;;;;12.27;8.30;;;;;;;;;;4972450;28;20390;-73
2022/11/16 00:50:23;;;;;;;11.18;9.23;;;;;;;;;;4969514;28;20034;-73
2022/11/16 00:52:51;;;;;;;9.30;7.97;;;;;;;;;;4986685;22;20037;-79
2022/11/16 00:55:20;;;;;;;12.95;9.10;;;;;;;;;;4951864;28;20097;-79
2022/11/16 00:57:55;;;;;;;12.63;7.45;;;;;;;;;;4935614;28;20031;-78
2022/11/16 01:00:23;;;;;;;9.45;7.55;;;;;;;;;;4967352;28;20038;-79
2022/11/16 01:02:53;;;;;;;10.25;8.30;;;;;;;;;;4935632;28;20396;-79
2022/11/16 01:05:24;;;;;;;11.32;8.02;;;;;;;;;;4952390;28;20027;-79
2022/11/16 01:07:52;;;;;;;14.02;9.13;;;;;;;;;;4970037;28;20034;-79
2022/11/16 01:10:19;;;;;;;9.10;8.10;;;;;;;;;;4953805;28;20607;-79
2022/11/16 01:12:45;;;;;;;11.52;8.98;;;;;;;;;;4966689;28;20042;-79
2022/11/16 01:15:17;;;;;;;10.10;6.95;;;;;;;;;;4936336;28;20046;-79
2022/11/16 01:17:43;;;;;;;16.23;8.90;;;;;;;;;;4967370;28;20037;-79
2022/11/16 01:20:16;;;;;;;11.48;9.05;;;;;;;;;;4967840;28;20436;-79
2022/11/16 01:22:44;;;;;;;10.50;7.40;;;;;;;;;;4951352;28;20023;-79
2022/11/16 01:25:11;;;;;;;9.27;7.78;;;;;;;;;;4947631;28;20027;-79
2022/11/16 01:27:37;;;;;;;9.00;7.60;;;;;;;;;;4952273;28;20027;-78
2022/11/16 01:30:11;;;;;;;11.95;8.93;;;;;;;;;;4965505;28;20043;-79
2022/11/16 01:32:41;;;;;;;11.27;8.93;;;;;;;;;;4952370;28;20083;-79
2022/11/16 01:35:13;;;;;;;8.40;7.03;;;;;;;;;;4950807;28;20417;-79
2022/11/16 01:37:44;;;;;;;9.07;8.02;;;;;;;;;;4966485;28;20042;-79
2022/11/16 01:40:12;;;;;;;10.90;7.97;;;;;;;;;;4967609;28;20034;-79
2022/11/16 01:42:41;;;;;;;15.32;8.60;;;;;;;;;;4950257;28;20035;-79
2022/11/16 01:45:18;;;;;;;12.82;8.63;;;;;;;;;;4965508;28;20030;-79
2022/11/16 01:47:44;;;;;;;10.70;8.15;;;;;;;;;;4954994;28;20512;-79
2022/11/16 01:50:13;;;;;;;8.38;7.22;;;;;;;;;;4954164;28;20038;-79
2022/11/16 01:52:49;;;;;;;12.98;8.55;;;;;;;;;;4967768;28;20034;-79
2022/11/16 01:55:18;;;;;;;12.27;8.77;;;;;;;;;;4937622;28;20038;-79
2022/11/16 01:58:08;;;;;;;9.77;8.05;;;;;;;;;;4951898;28;20528;-79
2022/11/16 02:00:40;;;;;;;10.02;7.78;;;;;;;;;;4934712;28;20046;-79
2022/11/16 02:03:24;;;;;;;11.35;8.75;;;;;;;;;;4965834;28;20474;-79
2022/11/16 02:05:58;;;;;;;12.80;8.10;;;;;;;;;;4968146;28;20508;-79
2022/11/16 02:11:13;;;;;;;9.48;8.48;;;;;;;;;;4967792;28;20042;-79
2022/11/16 02:13:48;;;;;;;8.52;7.65;;;;;;;;;;4966704;28;20038;-79
2022/11/16 02:16:17;;;;;;;11.68;7.40;;;;;;;;;;4963159;28;20018;-79
2022/11/16 02:18:53;;;;;;;8.35;7.53;;;;;;;;;;4964140;28;20401;-79
2022/11/16 02:21:22;;;;;;;9.90;8.07;;;;;;;;;;4967313;28;20031;-79
2022/11/16 02:23:56;;;;;;;10.50;7.90;;;;;;;;;;4966986;28;20038;-79
2022/11/16 02:26:35;;;;;;;9.63;8.23;;;;;;;;;;4950245;28;20512;-79
2022/11/16 02:29:19;;;;;;;10.15;7.72;;;;;;;;;;4969730;28;20409;-79
2022/11/16 02:31:52;;;;;;;13.85;9.10;;;;;;;;;;4968579;28;20030;-79
2022/11/16 02:34:20;;;;;;;10.23;7.28;;;;;;;;;;4964830;28;20031;-79
2022/11/16 02:36:50;;;;;;;10.07;6.38;;;;;;;;;;4969958;28;20031;-79
2022/11/16 02:39:19;;;;;;;7.80;6.93;;;;;;;;;;4951250;28;20477;-79
2022/11/16 02:41:49;;;;;;;10.52;7.93;;;;;;;;;;4938007;28;20035;-79
2022/11/16 02:44:25;;;;;;;8.18;7.05;;;;;;;;;;4945125;28;20038;-79
2022/11/16 02:46:57;;;;;;;8.73;7.43;;;;;;;;;;4945469;28;20047;-79
2022/11/16 02:49:27;;;;;;;8.05;7.10;;;;;;;;;;4965485;28;20031;-79
2022/11/16 02:51:54;;;;;;;9.68;7.88;;;;;;;;;;4933650;28;20109;-79
2022/11/16 02:54:24;;;;;;;9.23;7.85;;;;;;;;;;4949302;28;20035;-79
2022/11/16 02:56:55;;;;;;;8.75;7.82;;;;;;;;;;4946079;28;20042;-79
2022/11/16 02:59:29;;;;;;;13.90;9.13;;;;;;;;;;4948247;28;20042;-79
2022/11/16 03:01:57;;;;;;;;;;;;;;;;;;4949693;28;20030;-79
2022/11/16 03:04:29;;;;;;;19.48;8.38;;;;;;;;;;4945880;28;19910;-80
2022/11/16 03:07:03;;;;;;;9.07;7.90;;;;;;;;;;4966120;28;20033;-79
2022/11/16 03:09:33;;;;;;;9.85;7.93;;;;;;;;;;4970364;28;20023;-79
2022/11/16 03:12:04;;;;;;;12.32;7.95;;;;;;;;;;4927092;28;20031;-79
2022/11/16 03:14:33;;;;;;;;;;;;;;;;;;4951315;28;20393;-79
2022/11/16 03:17:02;;;;;;;9.18;8.25;;;;;;;;;;4965710;28;19910;-79
2022/11/16 03:19:41;;;;;;;10.00;7.93;;;;;;;;;;4952992;28;20050;-79
2022/11/16 03:22:12;;;;;;;12.25;8.88;;;;;;;;;;4938758;28;20031;-79
2022/11/16 03:24:42;;;;;;;12.80;8.07;;;;;;;;;;4968879;28;20030;-79
2022/11/16 03:27:34;;;;;;;13.38;7.95;;;;;;;;;;4959716;28;20031;-79
2022/11/16 03:30:07;;;;;;;11.55;8.02;;;;;;;;;;4930419;28;20062;-79
2022/11/16 03:32:41;;;;;;;9.18;7.40;;;;;;;;;;4949725;28;20035;-79
2022/11/16 03:35:10;;;;;;;10.60;8.70;;;;;;;;;;4950397;28;20033;-79
2022/11/16 03:37:39;;;;;;;10.77;8.13;;;;;;;;;;4968957;28;20035;-79
2022/11/16 03:40:13;;;;;;;12.73;8.45;;;;;;;;;;4963268;28;20046;-79
2022/11/16 03:42:39;;;;;;;10.30;9.23;;;;;;;;;;4923200;28;20057;-79
2022/11/16 03:45:10;;;;;;;15.75;10.48;;;;;;;;;;4966746;28;20503;-80
2022/11/16 03:47:36;;;;;;;10.50;9.40;;;;;;;;;;4948238;28;20034;-80
2022/11/16 03:50:04;;;;;;;11.60;8.38;;;;;;;;;;4947100;28;20043;-80
2022/11/16 03:52:30;;;;;;;11.88;10.43;;;;;;;;;;4966937;28;20039;-80
2022/11/16 03:55:01;;;;;;;18.10;12.07;;;;;;;;;;4964676;28;20043;-80
2022/11/16 03:57:30;;;;;;;;;;;;;;;;;;4947487;28;20031;-80
2022/11/16 03:59:58;;;;;;;10.55;7.57;;;;;;;;;;4965156;28;19921;-80
2022/11/16 04:02:33;;;;;;;;;;;;;;;;;;4961329;28;20390;-80
2022/11/16 04:24:39;;;;;;;14.05;9.55;;;;;;;;;;4966530;28;20027;-80
2022/11/16 04:29:57;;;;;;;10.77;9.35;;;;;;;;;;4964685;28;20057;-79
2022/11/16 04:38:00;;;;;;;11.50;9.95;;;;;;;;;;4966149;28;20026;-79
2022/11/16 04:40:32;;;;;;;11.63;10.43;;;;;;;;;;4952947;28;20049;-81
2022/11/16 04:43:02;;;;;;;10.80;9.65;;;;;;;;;;4967423;28;20035;-81
2022/11/16 04:48:20;;;;;;;11.77;10.48;;;;;;;;;;4952830;28;20331;-81
2022/11/16 04:50:52;;;;;;;13.15;11.35;;;;;;;;;;4949234;28;20039;-81
2022/11/16 04:53:22;;;;;;;11.55;9.85;;;;;;;;;;4954293;28;20039;-80
2022/11/16 04:55:57;;;;;;;14.30;11.55;;;;;;;;;;4951584;28;20397;-81
2022/11/16 04:58:26;;;;;;;10.88;9.65;;;;;;;;;;4951019;28;20031;-80
2022/11/16 05:00:52;;;;;;;17.17;9.82;;;;;;;;;;4955853;28;20064;-81
2022/11/16 05:03:23;;;;;;;11.25;9.13;;;;;;;;;;4949957;28;20031;-80
2022/11/16 05:05:52;;;;;;;13.55;8.98;;;;;;;;;;4967963;28;20481;-80
2022/11/16 05:08:18;;;;;;;12.68;8.70;;;;;;;;;;4955253;28;20046;-80
2022/11/16 05:10:49;;;;;;;11.05;9.57;;;;;;;;;;4967846;28;20045;-80
2022/11/16 05:13:17;;;;;;;12.45;10.43;;;;;;;;;;4963601;28;20030;-81
2022/11/16 05:15:46;;;;;;;11.18;9.48;;;;;;;;;;4951299;28;20031;-81
2022/11/16 05:18:16;;;;;;;10.00;9.02;;;;;;;;;;4965673;28;20043;-81
2022/11/16 05:21:00;;;;;;;11.52;10.35;;;;;;;;;;4965119;28;20671;-81
2022/11/16 05:26:18;;;;;;;12.57;9.15;;;;;;;;;;4963308;28;20022;-81
2022/11/16 05:28:47;;;;;;;10.90;9.55;;;;;;;;;;4934592;28;20039;-81
2022/11/16 05:31:18;;;;;;;12.13;10.05;;;;;;;;;;4948949;28;20408;-81
2022/11/16 05:33:46;;;;;;;;;;;;;;;;;;4949929;28;20054;-81
2022/11/16 05:36:19;;;;;;;10.25;9.05;;;;;;;;;;4949557;28;19914;-81
2022/11/16 05:38:48;;;;;;;10.55;8.00;;;;;;;;;;4948734;28;20395;-81
2022/11/16 05:41:19;;;;;;;13.95;10.38;;;;;;;;;;4966965;28;20039;-81
2022/11/16 05:43:47;;;;;;;13.73;10.80;;;;;;;;;;4966175;28;20023;-81
2022/11/16 05:46:18;;;;;;;11.68;10.48;;;;;;;;;;4931138;28;20042;-81
2022/11/16 05:48:46;;;;;;;17.55;12.13;;;;;;;;;;4967121;28;20504;-81
2022/11/16 05:51:12;;;;;;;14.35;10.95;;;;;;;;;;4965483;28;20031;-81
2022/11/16 05:53:43;;;;;;;15.38;11.18;;;;;;;;;;4967152;28;20555;-81
2022/11/16 05:56:14;;;;;;;13.80;9.85;;;;;;;;;;4966979;28;20505;-81
2022/11/16 05:58:47;;;;;;;19.17;11.05;;;;;;;;;;4939024;28;20038;-81
2022/11/16 06:01:15;;;;;;;13.40;11.70;;;;;;;;;;4941135;28;20046;-81
2022/11/16 06:03:43;;;;;;;18.42;11.57;;;;;;;;;;4938372;28;20031;-80
2022/11/16 06:06:10;;;;;;;12.40;10.68;;;;;;;;;;4958366;28;20035;-81
2022/11/16 06:08:39;;;;;;;12.00;10.70;;;;;;;;;;4951791;28;20050;-80
2022/11/16 06:11:09;;;;;;;13.02;9.93;;;;;;;;;;4955393;28;20508;-81
2022/11/16 06:13:35;;;;;;;13.60;10.32;;;;;;;;;;4954867;28;20057;-81
2022/11/16 06:16:04;;;;;;;11.38;9.70;;;;;;;;;;4941727;28;20031;-80
2022/11/16 06:18:35;;;;;;;13.73;10.85;;;;;;;;;;4940313;28;20781;-80
2022/11/16 06:21:03;;;;;;;13.35;11.23;;;;;;;;;;4938651;28;20038;-80
2022/11/16 06:23:30;;;;;;;17.17;10.65;;;;;;;;;;4939187;28;20030;-80
2022/11/16 06:26:01;;;;;;;14.27;9.93;;;;;;;;;;4940266;28;20485;-80
2022/11/16 06:28:29;;;;;;;14.40;10.13;;;;;;;;;;4960361;28;20031;-80
2022/11/16 06:30:57;;;;;;;13.35;10.15;;;;;;;;;;4938357;28;20038;-80
2022/11/16 06:33:31;;;;;;;13.82;11.07;;;;;;;;;;4956550;28;20049;-80
2022/11/16 06:35:59;;;;;;;11.07;9.32;;;;;;;;;;4941643;28;20027;-80
2022/11/16 06:38:26;;;;;;;17.15;11.10;;;;;;;;;;4963491;28;20035;-80
2022/11/16 06:40:54;;;;;;;12.50;10.27;;;;;;;;;;4962510;28;20389;-80
2022/11/16 06:43:27;;;;;;;13.60;10.30;;;;;;;;;;4967319;28;20034;-80
2022/11/16 06:45:55;;;;;;;18.02;11.40;;;;;;;;;;4953142;28;20089;-80
2022/11/16 06:48:23;;;;;;;13.15;11.10;;;;;;;;;;4947390;28;21749;-79
2022/11/16 06:50:52;;;;;;;12.40;10.10;;;;;;;;;;4961621;28;20039;-80
2022/11/16 06:53:19;;;;;;;12.95;10.05;;;;;;;;;;4978425;22;20014;-74
2022/11/16 06:55:49;;;;;;;14.77;11.63;;;;;;;;;;4985141;28;20025;-75
2022/11/16 06:58:18;;;;;;;12.63;10.73;;;;;;;;;;5041429;28;20033;-75
2022/11/16 07:00:45;;;;;;;20.60;12.27;;;;;;;;;;5018738;28;20045;-75
2022/11/16 07:03:11;;;;;;;14.88;11.95;;;;;;;;;;5031979;28;20049;-74
2022/11/16 07:05:39;;;;;;;14.15;9.95;;;;;;;;;;5001038;28;20033;-75
2022/11/16 07:08:08;;;;;;;16.23;11.23;;;;;;;;;;5005743;28;20426;-75
2022/11/16 07:10:35;;;;;;;14.60;11.57;;;;;;;;;;5001762;28;20033;-75
2022/11/16 07:13:02;;;;;;;14.30;11.35;;;;;;;;;;5008134;28;20033;-75
2022/11/16 07:15:28;;;;;;;13.70;11.63;;;;;;;;;;4988921;28;20057;-75
2022/11/16 07:17:55;;;;;;;11.55;10.45;;;;;;;;;;5004074;28;20045;-74
2022/11/16 07:20:21;;;;;;;11.82;9.95;;;;;;;;;;5017031;28;20045;-74
2022/11/16 07:22:47;;;;;;;16.55;11.60;;;;;;;;;;4986764;28;20026;-74
2022/11/16 07:25:21;;;;;;;15.07;10.35;;;;;;;;;;5000723;28;20042;-74
2022/11/16 07:27:46;;;;;;;9.98;8.98;;;;;;;;;;4993632;28;20060;-74
2022/11/16 07:30:13;;;;;;;12.27;10.57;;;;;;;;;;5003805;28;20061;-74
2022/11/16 07:32:48;;;;;;;14.40;10.77;;;;;;;;;;5009812;28;20041;-74
2022/11/16 07:35:28;;;;;;;12.07;9.60;;;;;;;;;;5000121;28;20042;-75
2022/11/16 07:37:59;;;;;;;14.68;11.05;;;;;;;;;;5023410;28;20498;-74
2022/11/16 07:40:24;;;;;;;11.60;10.20;;;;;;;;;;4988747;28;20038;-75
2022/11/16 07:42:56;;;;;;;12.95;9.20;;;;;;;;;;4986908;28;20026;-75
2022/11/16 07:45:40;;;;;;;11.45;8.50;;;;;;;;;;4985945;28;20033;-74
2022/11/16 07:48:12;;;;;;;8.85;7.70;;;;;;;;;;5008214;28;20034;-75
2022/11/16 07:51:13;;;;;;;13.07;9.83;;;;;;;;;;5005680;28;20397;-75
2022/11/16 07:53:46;;;;;;;11.57;9.50;;;;;;;;;;5000805;28;20408;-75
2022/11/16 07:56:14;;;;;;;11.27;9.38;;;;;;;;;;5006036;28;20034;-75
2022/11/16 07:58:45;;;;;;;12.50;9.00;;;;;;;;;;4989954;28;20633;-75
2022/11/16 08:01:15;;;;;;;9.48;8.38;;;;;;;;;;5008606;28;20042;-74
2022/11/16 08:03:44;;;;;;;8.57;6.95;;;;;;;;;;5006641;28;20053;-75
2022/11/16 08:06:19;;;;;;;9.73;7.70;;;;;;;;;;4992860;28;20056;-74
2022/11/16 08:08:45;;;;;;;10.85;6.57;;;;;;;;;;5025447;28;20292;-73
2022/11/16 08:11:12;;;;;;;12.38;8.00;;;;;;;;;;5006477;28;20037;-74
2022/11/16 08:13:38;;;;;;;9.65;7.63;;;;;;;;;;4993713;28;20475;-75
2022/11/16 08:16:09;;;;;;;8.77;7.50;;;;;;;;;;5020004;28;20034;-74
2022/11/16 08:18:39;;;;;;;9.25;7.60;;;;;;;;;;5009854;28;20041;-74
2022/11/16 08:21:11;;;;;;;10.40;8.63;;;;;;;;;;5005646;28;20034;-75
2022/11/16 08:23:41;;;;;;;11.77;8.05;;;;;;;;;;5005997;28;20294;-75
2022/11/16 08:26:13;;;;;;;10.15;7.28;;;;;;;;;;5011735;28;20021;-75
2022/11/16 08:28:39;;;;;;;11.68;7.22;;;;;;;;;;5005891;28;20495;-75
2022/11/16 08:31:16;;;;;;;7.57;6.72;;;;;;;;;;4988601;28;20044;-75
2022/11/16 08:33:43;;;;;;;8.50;5.88;;;;;;;;;;5012040;28;20391;-74
2022/11/16 08:36:16;;;;;;;6.32;5.38;;;;;;;;;;5029285;28;20262;-74
2022/11/16 08:38:44;;;;;;;8.85;5.68;;;;;;;;;;4993507;28;20037;-74
2022/11/16 08:41:14;;;;;;;7.70;5.53;;;;;;;;;;5021049;28;20484;-74
2022/11/16 08:43:40;;;;;;;9.98;4.88;;;;;;;;;;4991404;28;20038;-74
2022/11/16 08:46:09;;;;;;;5.55;4.65;;;;;;;;;;5024079;28;20057;-74
2022/11/16 08:48:41;;;;;;;7.10;5.20;;;;;;;;;;5026315;28;20034;-75
2022/11/16 08:51:16;;;;;;;6.18;3.85;;;;;;;;;;5009028;28;20785;-75
2022/11/16 08:53:56;;;;;;;7.68;4.85;;;;;;;;;;4989959;28;20404;-75
2022/11/16 08:56:22;;;;;;;11.57;6.45;;;;;;;;;;5025045;28;20040;-75
2022/11/16 08:58:53;;;;;;;5.65;4.88;;;;;;;;;;4993345;28;20029;-75
2022/11/16 09:01:20;;;;;;;7.35;3.90;;;;;;;;;;5023223;28;20031;-76
2022/11/16 09:03:46;;;;;;;10.77;3.83;;;;;;;;;;5008587;28;20034;-75
2022/11/16 09:06:13;;;;;;;7.57;3.90;;;;;;;;;;5009235;28;20030;-76
2022/11/16 09:08:39;;;;;;;7.00;4.57;;;;;;;;;;5001134;28;20033;-75
2022/11/16 09:11:06;;;;;;;6.30;3.33;;;;;;;;;;5011064;28;20040;-75
2022/11/16 09:13:32;;;;;;;6.78;4.00;;;;;;;;;;5009263;28;20048;-75
2022/11/16 09:16:03;;;;;;;4.95;3.92;;;;;;;;;;5005135;28;20037;-76
2022/11/16 09:18:29;;;;;;;5.00;3.25;;;;;;;;;;5012327;28;20034;-75
2022/11/16 09:20:56;;;;;;;3.63;2.55;;;;;;;;;;5012606;28;20045;-76
2022/11/16 09:23:22;;;;;;;8.80;4.35;;;;;;;;;;5022709;28;20053;-75
2022/11/16 09:25:48;;;;;;;6.15;3.50;;;;;;;;;;5024575;28;20033;-76
2022/11/16 09:28:17;;;;;;;4.28;2.88;;;;;;;;;;5018521;28;20029;-75
2022/11/16 09:30:47;;;;;;;7.47;2.80;;;;;;;;;;4999028;28;20472;-75
2022/11/16 09:33:15;;;;;;;6.10;2.10;;;;;;;;;;5016755;28;20480;-76
2022/11/16 09:35:46;;;;;;;9.90;3.08;;;;;;;;;;5007941;28;20033;-76
2022/11/16 09:38:12;;;;;;;4.78;2.67;;;;;;;;;;5004582;28;20065;-76
2022/11/16 09:40:39;;;;;;;5.13;2.95;;;;;;;;;;5024841;28;20429;-75
2022/11/16 09:43:08;;;;;;;4.35;2.38;;;;;;;;;;4977994;28;20034;-75
2022/11/16 09:45:36;;;;;;;4.18;2.63;;;;;;;;;;5007827;28;20026;-75
2022/11/16 09:48:05;;;;;;;5.28;2.90;;;;;;;;;;5008103;28;20033;-75
2022/11/16 09:50:33;;;;;;;6.63;3.13;;;;;;;;;;5009748;28;20369;-76
2022/11/16 09:53:12;;;;;;;6.45;3.40;;;;;;;;;;5006236;28;20037;-76
2022/11/16 09:55:45;;;;;;;5.90;2.42;;;;;;;;;;5010695;28;20060;-76
2022/11/16 09:58:13;;;;;;;6.72;3.22;;;;;;;;;;5007909;28;20377;-75
2022/11/16 10:00:47;;;;;;;4.40;2.30;;;;;;;;;;5005731;28;20042;-75
2022/11/16 10:03:14;;;;;;;6.05;4.00;;;;;;;;;;5008762;28;20384;-74
2022/11/16 10:06:01;;;;;;;7.30;2.80;;;;;;;;;;5009499;28;20041;-75
2022/11/16 10:08:46;;;;;;;4.97;2.53;;;;;;;;;;5006672;28;20395;-75
2022/11/16 10:11:21;;;;;;;3.22;2.78;;;;;;;;;;5004237;28;20033;-75
2022/11/16 10:13:49;;;;;;;2.33;1.85;;;;;;;;;;5008144;28;20042;-75
2022/11/16 10:16:19;;;;;;;5.07;2.22;;;;;;;;;;5010777;28;20042;-74
2022/11/16 10:18:56;;;;;;;4.00;2.20;;;;;;;;;;5004654;28;20044;-75
2022/11/16 10:21:25;;;;;;;3.15;2.33;;;;;;;;;;4990456;28;20034;-74
2022/11/16 10:24:09;;;;;;;3.75;2.80;;;;;;;;;;5011340;28;20026;-75
2022/11/16 10:26:47;;;;;;;2.70;1.80;;;;;;;;;;5018058;28;20053;-74
2022/11/16 10:29:42;;;;;;;11.57;2.40;;;;;;;;;;5006241;28;20037;-74
2022/11/16 10:32:27;;;;;;;5.65;2.22;;;;;;;;;;4994007;28;20037;-74
2022/11/16 10:34:55;;;;;;;14.63;2.75;;;;;;;;;;5022918;28;20503;-74
2022/11/16 10:37:26;;;;;;;6.45;2.47;;;;;;;;;;5008656;28;20029;-74
2022/11/16 10:39:55;;;;;;;7.40;1.80;;;;;;;;;;5004500;28;20033;-74
2022/11/16 10:42:24;;;;;;;5.72;1.85;;;;;;;;;;5006061;28;20033;-74
2022/11/16 10:44:55;;;;;;;4.40;2.70;;;;;;;;;;5003329;28;20038;-75
2022/11/16 10:47:28;;;;;;;3.60;2.22;;;;;;;;;;5025344;28;20049;-75
2022/11/16 10:49:58;;;;;;;4.70;3.58;;;;;;;;;;4999734;28;20046;-74
2022/11/16 10:52:24;;;;;;;5.78;3.03;;;;;;;;;;5002499;28;20041;-74
2022/11/16 10:54:50;;;;;;;3.20;2.13;;;;;;;;;;5009999;28;20045;-74
2022/11/16 10:57:18;;;;;;;4.07;1.67;;;;;;;;;;5007310;28;20480;-75
2022/11/16 10:59:46;;;;;;;3.58;2.25;;;;;;;;;;5006049;28;20029;-74
2022/11/16 11:02:20;;;;;;;4.07;2.35;;;;;;;;;;5011325;28;20033;-74
2022/11/16 11:04:59;;;;;;;6.93;2.67;;;;;;;;;;5010364;28;20034;-74
2022/11/16 11:07:32;;;;;;;6.68;2.17;;;;;;;;;;5007822;28;20026;-74
2022/11/16 11:10:03;;;;;;;6.22;2.33;;;;;;;;;;5007190;28;20033;-74
2022/11/16 11:12:37;;;;;;;7.90;3.42;;;;;;;;;;4993756;28;20033;-74
2022/11/16 11:15:06;;;;;;;4.85;2.45;;;;;;;;;;5019555;28;20026;-74
2022/11/16 11:17:33;;;;;;;4.43;1.45;;;;;;;;;;5008126;28;20034;-73
2022/11/16 11:20:16;;;;;;;3.92;1.88;;;;;;;;;;4987993;28;20464;-77
2022/11/16 11:22:42;;;;;;;;;;;;;;;;;;5005465;28;20508;-81
2022/11/16 11:25:18;;;;;;;3.08;1.85;;;;;;;;;;5001682;28;19909;-74
2022/11/16 11:27:47;;;;;;;3.75;2.80;;;;;;;;;;5008889;28;20038;-75
2022/11/16 11:30:21;;;;;;;4.00;2.00;;;;;;;;;;5003756;28;20053;-76
2022/11/16 11:32:47;;;;;;;3.40;2.33;;;;;;;;;;5006098;28;20029;-75
2022/11/16 11:35:26;;;;;;;2.95;1.98;;;;;;;;;;5005602;28;20491;-74
2022/11/16 11:37:53;;;;;;;2.78;1.67;;;;;;;;;;5007500;28;20373;-74
2022/11/16 11:40:31;;;;;;;4.03;2.10;;;;;;;;;;5028936;28;20037;-75
2022/11/16 11:42:59;;;;;;;6.72;2.30;;;;;;;;;;5011469;28;20518;-75
2022/11/16 11:45:36;;;;;;;7.75;2.53;;;;;;;;;;5012892;28;20033;-74
2022/11/16 11:48:20;;;;;;;4.50;2.13;;;;;;;;;;5025861;28;20030;-74
2022/11/16 11:50:46;;;;;;;;;;;;;;;;;;5012305;28;20036;-75
2022/11/16 11:53:37;;;;;;;3.58;2.67;;;;;;;;;;5006847;28;19909;-76
2022/11/16 11:56:03;;;;;;;3.72;1.60;;;;;;;;;;5007276;28;20038;-73
2022/11/16 11:58:31;;;;;;;2.83;1.60;;;;;;;;;;5010716;28;20144;-74
2022/11/16 12:01:08;;;;;;;3.58;2.10;;;;;;;;;;5011976;28;20053;-75
2022/11/16 12:03:40;;;;;;;8.65;2.03;;;;;;;;;;5026610;28;20034;-75
2022/11/16 12:06:26;;;;;;;10.02;3.70;;;;;;;;;;5010534;28;20034;-74
2022/11/16 12:08:52;;;;;;;7.13;2.83;;;;;;;;;;5007410;28;20472;-75
2022/11/16 12:11:27;;;;;;;2.78;1.58;;;;;;;;;;5010002;28;20034;-74
2022/11/16 12:13:53;;;;;;;5.18;1.85;;;;;;;;;;5006138;28;20041;-75
2022/11/16 12:16:39;;;;;;;4.22;1.92;;;;;;;;;;5012142;28;20060;-75
2022/11/16 12:19:07;;;;;;;4.68;1.92;;;;;;;;;;5005725;28;20041;-75
2022/11/16 12:21:43;;;;;;;3.80;1.42;;;;;;;;;;5013800;28;20484;-75
2022/11/16 12:24:09;;;;;;;5.38;2.00;;;;;;;;;;5011077;28;20029;-74
2022/11/16 12:26:47;;;;;;;4.10;2.95;;;;;;;;;;5011353;28;20042;-76
2022/11/16 12:29:35;;;;;;;13.10;3.95;;;;;;;;;;5029689;28;20045;-74
2022/11/16 12:32:25;;;;;;;3.53;1.80;;;;;;;;;;5013546;28;20504;-74
2022/11/16 12:34:59;;;;;;;3.88;2.85;;;;;;;;;;5008189;28;20049;-74
2022/11/16 12:37:31;;;;;;;3.42;1.88;;;;;;;;;;5011180;28;20038;-74
2022/11/16 12:40:16;;;;;;;2.40;1.77;;;;;;;;;;5011601;28;20034;-75
2022/11/16 12:43:05;;;;;;;5.47;2.00;;;;;;;;;;5023771;28;20038;-75
2022/11/16 12:46:01;;;;;;;6.35;2.13;;;;;;;;;;5006094;28;20030;-76
2022/11/16 12:48:30;;;;;;;3.45;2.83;;;;;;;;;;4992739;28;20030;-75
2022/11/16 12:51:07;;;;;;;8.23;2.42;;;;;;;;;;5013538;28;20510;-74
2022/11/16 12:53:48;;;;;;;3.33;1.92;;;;;;;;;;5042242;22;20034;-79
2022/11/16 12:56:17;;;;;;;5.15;2.85;;;;;;;;;;4974003;28;20432;-79
2022/11/16 12:59:06;;;;;;;3.67;2.05;;;;;;;;;;4974996;28;20515;-80
2022/11/16 13:01:40;;;;;;;5.40;2.95;;;;;;;;;;4992747;28;21684;-81
2022/11/16 13:04:11;;;;;;;2.97;2.20;;;;;;;;;;4990172;28;20035;-80
2022/11/16 13:06:43;;;;;;;1.95;1.20;;;;;;;;;;4990561;28;20037;-80
2022/11/16 13:09:09;;;;;;;4.43;2.22;;;;;;;;;;4991359;28;20031;-81
2022/11/16 13:11:45;;;;;;;2.58;1.50;;;;;;;;;;4992128;28;20502;-80
2022/11/16 13:14:14;;;;;;;2.80;1.33;;;;;;;;;;4987219;28;20026;-79
2022/11/16 13:16:43;;;;;;;6.38;2.10;;;;;;;;;;4983923;28;20046;-81
2022/11/16 13:19:10;;;;;;;4.90;2.35;;;;;;;;;;4982020;28;20026;-79
2022/11/16 13:21:46;;;;;;;8.10;2.25;;;;;;;;;;4983856;28;20034;-81
2022/11/16 13:24:21;;;;;;;7.20;1.23;;;;;;;;;;4987705;28;20018;-81
2022/11/16 13:27:11;;;;;;;3.88;1.42;;;;;;;;;;4986636;28;20037;-81
2022/11/16 13:29:39;;;;;;;3.05;1.70;;;;;;;;;;4990626;28;20031;-81
2022/11/16 13:32:16;;;;;;;3.05;1.60;;;;;;;;;;4976104;28;20499;-81
2022/11/16 13:34:46;;;;;;;3.92;1.52;;;;;;;;;;4991306;28;20037;-81
2022/11/16 13:37:33;;;;;;;1.85;1.23;;;;;;;;;;4990729;28;20388;-81
2022/11/16 13:39:59;;;;;;;4.65;1.85;;;;;;;;;;4967528;28;20396;-81
2022/11/16 13:42:28;;;;;;;2.22;1.33;;;;;;;;;;4982415;28;20043;-81
2022/11/16 13:45:04;;;;;;;7.13;1.98;;;;;;;;;;4987230;28;20057;-80
2022/11/16 13:47:32;;;;;;;2.38;1.25;;;;;;;;;;4989814;28;20038;-80
2022/11/16 13:50:03;;;;;;;2.35;1.38;;;;;;;;;;4973147;28;20038;-80
2022/11/16 13:52:41;;;;;;;7.20;1.45;;;;;;;;;;4989822;28;20042;-81
2022/11/16 13:55:31;;;;;;;5.28;1.73;;;;;;;;;;4989243;28;20519;-81
2022/11/16 13:57:58;;;;;;;4.25;1.77;;;;;;;;;;4991488;28;20041;-81
2022/11/16 14:00:29;;;;;;;2.20;1.05;;;;;;;;;;4985415;28;20045;-81
2022/11/16 14:03:27;;;;;;;2.45;1.40;;;;;;;;;;4992402;28;20369;-79
2022/11/16 14:05:53;;;;;;;3.63;1.50;;;;;;;;;;4953611;28;20042;-81
2022/11/16 14:08:19;;;;;;;4.22;2.25;;;;;;;;;;4989458;28;20029;-81
2022/11/16 14:10:50;;;;;;;7.20;1.70;;;;;;;;;;4986448;28;20030;-81
2022/11/16 14:13:38;;;;;;;5.68;2.80;;;;;;;;;;4993019;28;20496;-80
2022/11/16 14:16:20;;;;;;;3.85;2.63;;;;;;;;;;4987959;28;20031;-82
2022/11/16 14:18:54;;;;;;;4.68;2.40;;;;;;;;;;4982415;28;20396;-81
2022/11/16 14:21:43;;;;;;;5.30;2.08;;;;;;;;;;4985173;28;20037;-82
2022/11/16 14:24:32;;;;;;;10.68;4.50;;;;;;;;;;4974261;28;20037;-82
2022/11/16 14:27:03;;;;;;;5.90;3.65;;;;;;;;;;4982355;28;20034;-81
2022/11/16 14:29:52;;;;;;;3.58;1.45;;;;;;;;;;4996555;28;20030;-81
2022/11/16 14:32:20;;;;;;;11.52;6.82;;;;;;;;;;4987692;28;20038;-81
2022/11/16 14:34:50;;;;;;;3.53;2.10;;;;;;;;;;4990348;28;20046;-81
2022/11/16 14:37:23;;;;;;;5.53;2.92;;;;;;;;;;4973567;28;20291;-81
2022/11/16 14:39:52;;;;;;;6.28;4.13;;;;;;;;;;4992018;28;20035;-81
2022/11/16 14:42:26;;;;;;;9.55;3.03;;;;;;;;;;4973864;28;20045;-80
2022/11/16 14:45:02;;;;;;;4.93;2.35;;;;;;;;;;4983264;28;20037;-81
2022/11/16 14:47:29;;;;;;;4.93;3.88;;;;;;;;;;4976016;28;20054;-81
2022/11/16 14:49:58;;;;;;;8.45;3.25;;;;;;;;;;4953942;28;20480;-81
2022/11/16 14:52:38;;;;;;;6.97;5.65;;;;;;;;;;4991183;28;20053;-81
2022/11/16 14:55:07;;;;;;;8.52;6.63;;;;;;;;;;4987305;28;20041;-81
2022/11/16 14:57:33;;;;;;;7.78;5.85;;;;;;;;;;4974478;28;20042;-81
2022/11/16 15:00:08;;;;;;;8.60;6.28;;;;;;;;;;4986751;28;20500;-81
2022/11/16 15:02:34;;;;;;;5.40;3.90;;;;;;;;;;4987338;28;20038;-81
2022/11/16 15:05:05;;;;;;;10.98;4.45;;;;;;;;;;4988877;28;20030;-81
2022/11/16 15:07:33;;;;;;;7.15;4.32;;;;;;;;;;4988050;28;20405;-81
2022/11/16 15:10:04;;;;;;;3.83;3.53;;;;;;;;;;4966275;28;20385;-81
2022/11/16 15:12:40;;;;;;;5.65;4.10;;;;;;;;;;4958372;28;20507;-80
2022/11/16 15:15:08;;;;;;;6.72;5.15;;;;;;;;;;4981964;28;20026;-81
2022/11/16 15:17:34;;;;;;;6.40;5.00;;;;;;;;;;4988710;28;20062;-81
2022/11/16 15:20:02;;;;;;;8.50;4.82;;;;;;;;;;4990159;28;20037;-81
2022/11/16 15:22:31;;;;;;;12.15;9.20;;;;;;;;;;4982168;28;20485;-81
2022/11/16 15:25:02;;;;;;;13.95;9.20;;;;;;;;;;4981205;28;20389;-81
2022/11/16 15:27:31;;;;;;;10.57;7.00;;;;;;;;;;4989052;28;20400;-81
2022/11/16 15:30:00;;;;;;;6.47;5.35;;;;;;;;;;4990037;28;20034;-81
2022/11/16 15:32:26;;;;;;;9.55;3.72;;;;;;;;;;4982899;28;20042;-81
2022/11/16 15:34:55;;;;;;;3.42;2.28;;;;;;;;;;4954393;28;20035;-81
2022/11/16 15:37:27;;;;;;;5.07;2.95;;;;;;;;;;4987944;28;20034;-81
2022/11/16 15:39:55;;;;;;;5.13;3.05;;;;;;;;;;4984291;28;20034;-81